In Rescue
 
Open Full Screen Window  High Contrast Mode
Wind Gusting 16 knots
10
November 14, 2019 1:56 PM EST
Weather Information
Wind Direction
  230 °
Wind Speed
  10 kt (12 mph)
Wind Gust
  16 kt (18 mph)
Altimeter
30.09 in
Visibility
10 SM
Temperature
-01° C
30° F
Dewpoint
-06° C
21° F
Humidity
69%
Sky Condition
Overcast @ 2,400 ft
MVFR

METAR KCVX 141856Z AUTO 23010G16KT 10SM OVC024 M01/M06 A3009 RMK AO2 T10061062

FAA Disclaimer: The data displayed is for advisory purposes only and is not to be used for flight planning or operations.